الصفحة الرئيسية
METAR-TAF:

METAR-TAF

مطار :

مطار لوجان الدولي

بوسطن, ماساتشوستس, الولايات المتحدة

دائرة عرض: 42-21-38N, خط طول: 071-00-38W, ارتفاع: 6 متر

مراقبة الطقس الحالي

تاريخ ووقت الإصدار 53 دقيقة قبل الساعة 03:54UTC
ريح 16 عقدة من الغرب تتزايد حتى 23 عقدة
درجة الحرارة 8°درجة مئوية
الرطوبة 49%
ضغط 1014 hPa
الرؤية: 16.1 كم
غيوم قليلة على ارتفاع 9000 قدم

METAR: KBOS 180354Z 28016G23KT 10SM FEW090 08/M02 A2994 RMK AO2 SLP139 T00831017

زمن: 00:47 (04:47 UTC)

توقعات

تاريخ ووقت الإصدار 5ساعات و 10 دقيقة قبل الساعة 23:37UTC
التوقعات صالحة من18 الساعة 00 UTC إلى 19 الساعة 06 UTC
ريح 15 عقدة من الغرب تتزايد حتى 25 عقدة
الرؤية: 10 كم
غيوم قليلة على ارتفاع 25000 قدم
من 18 الساعة 1100 UTC
ريح 20 عقدة من الغرب/الشمال الغربي تتزايد حتى 35 عقدة
الرؤية: 10 كم
سماء صافية
من 19 الساعة 0000 UTC
ريح 10 عقدة من الغرب/الشمال الغربي تتزايد حتى 23 عقدة
الرؤية: 10 كم
سماء صافية

TAF: KBOS 172337Z 1800/1906 28015G25KT P6SM FEW250 FM181100 30020G35KT P6SM SKC FM190000 29010G23KT P6SM SKC

أرصاد الطقس والتوقعات من أكثر من 4000 مطار (تقارير الطقس للمطار METAR والتنبؤ بالطقس بالمطارTAF).

المحطات المتاحة هي النقط الصفراء والحمراء على الخريطة.

حرك المؤشر فوق النقطة لمعرفة اسم المحطة.

ثم انقر لمعرفة أرصاد وتوقعات الطقس.

لتغيير الخارطة: اضغط على الأزرار الخضراء مع رمز الصليب الأسود للتكبير. على الزر الأخضر مع شرطة للتصغير، أو على الأسهم الخضراء للخرائط المجاورة.


METAR-TAF: